sensor_id;sensor_type;location;lat;lon;timestamp;temperature;humidity
16968;DHT22;64862;54.398;10.126;2023-09-18T00:02:20;18.30;97.70
16968;DHT22;64862;54.398;10.126;2023-09-18T00:12:22;18.30;97.70
16968;DHT22;64862;54.398;10.126;2023-09-18T00:22:25;18.20;97.80
16968;DHT22;64862;54.398;10.126;2023-09-18T00:32:29;18.20;97.80
16968;DHT22;64862;54.398;10.126;2023-09-18T00:42:32;18.20;97.90
16968;DHT22;64862;54.398;10.126;2023-09-18T00:52:34;18.20;97.90
16968;DHT22;64862;54.398;10.126;2023-09-18T01:02:37;18.20;97.90
16968;DHT22;64862;54.398;10.126;2023-09-18T01:12:45;18.10;97.90
16968;DHT22;64862;54.398;10.126;2023-09-18T01:22:49;18.10;98.00
16968;DHT22;64862;54.398;10.126;2023-09-18T01:32:51;18.00;98.00
16968;DHT22;64862;54.398;10.126;2023-09-18T01:42:55;18.00;98.00
16968;DHT22;64862;54.398;10.126;2023-09-18T01:52:58;18.00;98.00
16968;DHT22;64862;54.398;10.126;2023-09-18T02:03:02;18.00;98.10
16968;DHT22;64862;54.398;10.126;2023-09-18T02:13:05;17.90;98.10
16968;DHT22;64862;54.398;10.126;2023-09-18T02:23:08;17.90;98.10
16968;DHT22;64862;54.398;10.126;2023-09-18T02:33:10;17.90;98.10
16968;DHT22;64862;54.398;10.126;2023-09-18T02:43:13;17.90;98.00
16968;DHT22;64862;54.398;10.126;2023-09-18T02:53:17;17.80;97.90
16968;DHT22;64862;54.398;10.126;2023-09-18T03:03:21;17.90;97.90
16968;DHT22;64862;54.398;10.126;2023-09-18T03:13:25;17.90;97.90
16968;DHT22;64862;54.398;10.126;2023-09-18T03:23:29;17.80;97.70
16968;DHT22;64862;54.398;10.126;2023-09-18T03:33:31;17.80;97.60
16968;DHT22;64862;54.398;10.126;2023-09-18T03:43:34;17.80;97.60
16968;DHT22;64862;54.398;10.126;2023-09-18T03:53:36;17.80;97.80
16968;DHT22;64862;54.398;10.126;2023-09-18T04:03:39;17.70;97.50
16968;DHT22;64862;54.398;10.126;2023-09-18T04:13:41;17.70;97.40
16968;DHT22;64862;54.398;10.126;2023-09-18T04:23:44;17.70;97.40
16968;DHT22;64862;54.398;10.126;2023-09-18T04:33:47;17.70;97.30
16968;DHT22;64862;54.398;10.126;2023-09-18T04:43:50;17.70;97.30
16968;DHT22;64862;54.398;10.126;2023-09-18T04:53:52;17.80;97.20
16968;DHT22;64862;54.398;10.126;2023-09-18T05:03:57;17.70;97.20
16968;DHT22;64862;54.398;10.126;2023-09-18T05:13:59;17.70;97.20
16968;DHT22;64862;54.398;10.126;2023-09-18T05:24:03;17.70;97.20
16968;DHT22;64862;54.398;10.126;2023-09-18T05:34:05;17.70;97.20
16968;DHT22;64862;54.398;10.126;2023-09-18T05:44:08;17.80;97.00
16968;DHT22;64862;54.398;10.126;2023-09-18T05:54:10;18.30;96.30
16968;DHT22;64862;54.398;10.126;2023-09-18T06:04:14;18.30;95.80
16968;DHT22;64862;54.398;10.126;2023-09-18T06:14:17;18.20;96.20
16968;DHT22;64862;54.398;10.126;2023-09-18T06:24:20;18.20;96.40
16968;DHT22;64862;54.398;10.126;2023-09-18T06:34:22;18.30;96.20
16968;DHT22;64862;54.398;10.126;2023-09-18T06:44:25;18.40;96.20
16968;DHT22;64862;54.398;10.126;2023-09-18T06:54:27;18.40;96.00
16968;DHT22;64862;54.398;10.126;2023-09-18T07:04:30;18.50;95.90
16968;DHT22;64862;54.398;10.126;2023-09-18T07:14:32;18.70;95.70
16968;DHT22;64862;54.398;10.126;2023-09-18T07:24:35;18.90;95.50
16968;DHT22;64862;54.398;10.126;2023-09-18T07:34:41;19.00;95.30
16968;DHT22;64862;54.398;10.126;2023-09-18T07:44:44;19.10;95.10
16968;DHT22;64862;54.398;10.126;2023-09-18T07:54:46;19.10;95.20
16968;DHT22;64862;54.398;10.126;2023-09-18T08:04:49;19.30;95.20
16968;DHT22;64862;54.398;10.126;2023-09-18T08:14:53;19.60;94.40
16968;DHT22;64862;54.398;10.126;2023-09-18T08:24:56;19.80;94.30
16968;DHT22;64862;54.398;10.126;2023-09-18T08:34:58;19.90;94.40
16968;DHT22;64862;54.398;10.126;2023-09-18T08:45:07;20.10;94.20
16968;DHT22;64862;54.398;10.126;2023-09-18T08:55:11;20.50;94.00
16968;DHT22;64862;54.398;10.126;2023-09-18T09:05:15;20.80;93.10
16968;DHT22;64862;54.398;10.126;2023-09-18T09:15:17;20.80;92.80
16968;DHT22;64862;54.398;10.126;2023-09-18T09:25:28;20.70;92.90
16968;DHT22;64862;54.398;10.126;2023-09-18T09:35:34;20.60;92.60
16968;DHT22;64862;54.398;10.126;2023-09-18T09:45:40;20.70;92.30
16968;DHT22;64862;54.398;10.126;2023-09-18T09:55:42;20.80;92.20
16968;DHT22;64862;54.398;10.126;2023-09-18T10:05:46;20.90;92.00
16968;DHT22;64862;54.398;10.126;2023-09-18T10:15:49;20.90;92.10
16968;DHT22;64862;54.398;10.126;2023-09-18T10:25:59;20.80;91.60
16968;DHT22;64862;54.398;10.126;2023-09-18T10:36:05;20.90;91.60
16968;DHT22;64862;54.398;10.126;2023-09-18T10:46:10;21.10;91.50
16968;DHT22;64862;54.398;10.126;2023-09-18T10:56:14;21.40;91.00
16968;DHT22;64862;54.398;10.126;2023-09-18T11:06:18;21.30;91.20
16968;DHT22;64862;54.398;10.126;2023-09-18T11:16:35;21.20;91.50
16968;DHT22;64862;54.398;10.126;2023-09-18T11:26:41;21.40;91.40
16968;DHT22;64862;54.398;10.126;2023-09-18T11:36:43;21.50;91.50
16968;DHT22;64862;54.398;10.126;2023-09-18T11:46:48;21.50;91.40
16968;DHT22;64862;54.398;10.126;2023-09-18T11:56:52;21.60;91.60
16968;DHT22;64862;54.398;10.126;2023-09-18T12:06:56;21.80;91.80
16968;DHT22;64862;54.398;10.126;2023-09-18T12:17:02;21.80;91.60
16968;DHT22;64862;54.398;10.126;2023-09-18T12:27:07;21.40;92.40
16968;DHT22;64862;54.398;10.126;2023-09-18T12:37:13;21.40;92.90
16968;DHT22;64862;54.398;10.126;2023-09-18T12:47:17;21.70;92.80
16968;DHT22;64862;54.398;10.126;2023-09-18T12:57:20;21.70;92.30
16968;DHT22;64862;54.398;10.126;2023-09-18T13:07:24;21.50;92.70
16968;DHT22;64862;54.398;10.126;2023-09-18T13:17:28;21.60;92.80
16968;DHT22;64862;54.398;10.126;2023-09-18T13:27:39;21.50;92.90
16968;DHT22;64862;54.398;10.126;2023-09-18T13:37:43;21.60;93.20
16968;DHT22;64862;54.398;10.126;2023-09-18T13:47:46;21.70;93.10
16968;DHT22;64862;54.398;10.126;2023-09-18T13:57:50;21.60;93.10
16968;DHT22;64862;54.398;10.126;2023-09-18T14:07:54;21.80;93.00
16968;DHT22;64862;54.398;10.126;2023-09-18T14:18:00;21.90;93.00
16968;DHT22;64862;54.398;10.126;2023-09-18T14:28:03;21.90;92.50
16968;DHT22;64862;54.398;10.126;2023-09-18T14:38:05;21.70;92.80
16968;DHT22;64862;54.398;10.126;2023-09-18T14:48:08;21.60;93.10
16968;DHT22;64862;54.398;10.126;2023-09-18T14:58:11;21.60;94.30
16968;DHT22;64862;54.398;10.126;2023-09-18T15:08:14;21.60;94.30
16968;DHT22;64862;54.398;10.126;2023-09-18T15:18:16;21.60;94.40
16968;DHT22;64862;54.398;10.126;2023-09-18T15:28:20;21.60;94.40
16968;DHT22;64862;54.398;10.126;2023-09-18T15:38:22;21.50;94.70
16968;DHT22;64862;54.398;10.126;2023-09-18T15:48:27;21.50;95.00
16968;DHT22;64862;54.398;10.126;2023-09-18T15:58:30;21.50;94.20
16968;DHT22;64862;54.398;10.126;2023-09-18T16:08:33;21.50;93.70
16968;DHT22;64862;54.398;10.126;2023-09-18T16:18:35;21.20;93.90
16968;DHT22;64862;54.398;10.126;2023-09-18T16:28:38;21.00;94.20
16968;DHT22;64862;54.398;10.126;2023-09-18T16:38:40;21.10;94.30
16968;DHT22;64862;54.398;10.126;2023-09-18T16:48:44;21.00;93.80
16968;DHT22;64862;54.398;10.126;2023-09-18T16:58:46;21.00;93.80
16968;DHT22;64862;54.398;10.126;2023-09-18T17:08:49;20.80;93.90
16968;DHT22;64862;54.398;10.126;2023-09-18T17:18:53;20.70;94.10
16968;DHT22;64862;54.398;10.126;2023-09-18T17:28:59;20.50;94.40
16968;DHT22;64862;54.398;10.126;2023-09-18T17:39:01;20.40;94.30
16968;DHT22;64862;54.398;10.126;2023-09-18T17:49:05;20.30;94.40
16968;DHT22;64862;54.398;10.126;2023-09-18T17:59:08;20.20;94.50
16968;DHT22;64862;54.398;10.126;2023-09-18T18:09:15;20.10;94.60
16968;DHT22;64862;54.398;10.126;2023-09-18T18:19:17;20.00;94.70
16968;DHT22;64862;54.398;10.126;2023-09-18T18:29:22;19.90;94.70
16968;DHT22;64862;54.398;10.126;2023-09-18T18:39:23;19.90;94.60
16968;DHT22;64862;54.398;10.126;2023-09-18T18:49:27;19.90;94.50
16968;DHT22;64862;54.398;10.126;2023-09-18T18:59:30;20.00;94.50
16968;DHT22;64862;54.398;10.126;2023-09-18T19:09:34;20.00;94.30
16968;DHT22;64862;54.398;10.126;2023-09-18T19:19:37;20.00;94.80
16968;DHT22;64862;54.398;10.126;2023-09-18T19:29:43;19.70;94.90
16968;DHT22;64862;54.398;10.126;2023-09-18T19:39:46;19.50;94.90
16968;DHT22;64862;54.398;10.126;2023-09-18T19:49:50;19.30;94.30
16968;DHT22;64862;54.398;10.126;2023-09-18T19:59:52;19.10;94.50
16968;DHT22;64862;54.398;10.126;2023-09-18T20:09:55;18.90;94.80
16968;DHT22;64862;54.398;10.126;2023-09-18T20:19:58;18.70;95.00
16968;DHT22;64862;54.398;10.126;2023-09-18T20:30:01;18.60;94.50
16968;DHT22;64862;54.398;10.126;2023-09-18T20:40:06;18.50;94.20
16968;DHT22;64862;54.398;10.126;2023-09-18T20:50:09;18.40;94.10
16968;DHT22;64862;54.398;10.126;2023-09-18T21:00:12;18.30;94.40
16968;DHT22;64862;54.398;10.126;2023-09-18T21:10:16;18.30;94.50
16968;DHT22;64862;54.398;10.126;2023-09-18T21:20:19;18.30;94.80
16968;DHT22;64862;54.398;10.126;2023-09-18T21:30:23;18.50;95.00
16968;DHT22;64862;54.398;10.126;2023-09-18T21:40:24;18.50;95.20
16968;DHT22;64862;54.398;10.126;2023-09-18T21:50:29;18.50;95.40
16968;DHT22;64862;54.398;10.126;2023-09-18T22:00:32;18.30;95.50
16968;DHT22;64862;54.398;10.126;2023-09-18T22:10:43;18.30;95.20
16968;DHT22;64862;54.398;10.126;2023-09-18T22:20:46;18.20;94.70
16968;DHT22;64862;54.398;10.126;2023-09-18T22:30:51;18.10;93.30
16968;DHT22;64862;54.398;10.126;2023-09-18T23:01:38;17.80;93.40
16968;DHT22;64862;54.398;10.126;2023-09-18T23:11:41;17.80;93.50
16968;DHT22;64862;54.398;10.126;2023-09-18T23:21:45;17.70;93.20
16968;DHT22;64862;54.398;10.126;2023-09-18T23:31:46;17.80;93.10
16968;DHT22;64862;54.398;10.126;2023-09-18T23:41:51;17.80;92.90
16968;DHT22;64862;54.398;10.126;2023-09-18T23:51:54;17.80;92.80
